Time;durP1;ratioP1;P1;durP2;ratioP2;P2;SDS_P1;SDS_P2;PMS_P1;PMS_P2;Temp;Humidity;BMP_temperature;BMP_pressure;BME280_temperature;BME280_humidity;BME280_pressure;Samples;Min_cycle;Max_cycle;Signal;HPM_P1;HPM_P2
2021/04/29 00:00:22;;;;;;;11.20;5.97;;;;;;;13.25;61.13;99778.41;5017503;28;20033;-76
2021/04/29 00:02:47;;;;;;;9.98;6.00;;;;;;;13.30;62.49;99775.25;5009999;28;20137;-76
2021/04/29 00:05:19;;;;;;;11.85;6.53;;;;;;;13.64;59.79;99768.13;5007340;28;20046;-76
2021/04/29 00:07:45;;;;;;;11.40;6.25;;;;;;;13.50;59.93;99776.31;5000372;28;20372;-77
2021/04/29 00:10:14;;;;;;;9.88;5.90;;;;;;;13.49;60.45;99767.44;5011152;28;20041;-77
2021/04/29 00:12:41;;;;;;;12.45;6.60;;;;;;;13.51;61.22;99775.19;5005476;28;20821;-77
2021/04/29 00:15:09;;;;;;;13.55;6.28;;;;;;;13.22;62.04;99768.38;5009635;28;20402;-76
2021/04/29 00:17:35;;;;;;;7.57;5.47;;;;;;;13.12;63.28;99777.31;5007951;28;20029;-76
2021/04/29 00:20:00;;;;;;;12.23;6.47;;;;;;;13.44;61.94;99775.97;5001324;28;20079;-76
2021/04/29 00:22:25;;;;;;;12.10;6.50;;;;;;;13.58;61.28;99775.91;5004205;28;20033;-76
2021/04/29 00:24:51;;;;;;;8.98;6.25;;;;;;;13.43;61.31;99765.56;5020718;28;20018;-76
2021/04/29 00:27:16;;;;;;;12.80;6.45;;;;;;;13.12;64.13;99758.38;4997120;28;20108;-77
2021/04/29 00:29:42;;;;;;;11.65;6.32;;;;;;;13.32;64.93;99778.34;5022336;28;20037;-76
2021/04/29 00:32:07;;;;;;;11.20;7.05;;;;;;;13.11;66.14;99768.41;5004981;28;20037;-76
2021/04/29 00:34:33;;;;;;;10.07;6.43;;;;;;;13.28;66.97;99781.06;5018307;28;20044;-76
2021/04/29 00:36:58;;;;;;;12.20;6.93;;;;;;;12.94;68.41;99779.25;5010707;28;20041;-76
2021/04/29 00:39:24;;;;;;;12.70;7.07;;;;;;;12.95;71.52;99780.81;5017082;28;20021;-76
2021/04/29 00:41:51;;;;;;;10.07;7.10;;;;;;;12.74;74.72;99787.03;5002130;28;20038;-78
2021/04/29 00:44:16;;;;;;;11.38;7.50;;;;;;;12.68;78.93;99791.31;5016113;28;20047;-77
2021/04/29 00:46:42;;;;;;;15.45;7.70;;;;;;;12.51;83.72;99784.78;5013138;28;20085;-78
2021/04/29 00:49:07;;;;;;;13.98;7.88;;;;;;;12.09;84.94;99784.84;4999923;28;20041;-77
2021/04/29 00:51:33;;;;;;;12.95;8.40;;;;;;;12.23;87.69;99784.06;5014987;28;20385;-77
2021/04/29 00:53:58;;;;;;;14.15;8.80;;;;;;;12.04;87.95;99784.44;4993626;28;20104;-75
2021/04/29 00:56:25;;;;;;;12.25;8.50;;;;;;;11.88;91.26;99786.75;4995452;28;20038;-78
2021/04/29 00:58:51;;;;;;;14.60;8.80;;;;;;;11.65;94.00;99787.88;5010869;28;20148;-76
2021/04/29 01:01:17;;;;;;;17.92;8.70;;;;;;;11.74;95.06;99792.91;4999766;28;20517;-78
2021/04/29 01:03:52;;;;;;;14.07;9.18;;;;;;;11.68;96.76;99797.13;5010755;28;20478;-76
2021/04/29 01:06:22;;;;;;;13.48;9.07;;;;;;;11.50;96.33;99791.66;5015969;28;20037;-79
2021/04/29 01:09:03;;;;;;;15.82;9.70;;;;;;;11.52;96.99;99783.97;5014054;28;20030;-79
2021/04/29 01:11:32;;;;;;;15.68;10.48;;;;;;;11.61;99.74;99787.06;5010258;28;20096;-79
2021/04/29 01:14:02;;;;;;;13.05;8.88;;;;;;;11.66;98.28;99783.25;5010567;28;20061;-78
2021/04/29 01:16:27;;;;;;;16.48;9.82;;;;;;;11.81;98.03;99773.25;4998725;28;20057;-77
2021/04/29 01:18:56;;;;;;;18.15;10.45;;;;;;;11.97;97.17;99760.94;5008905;28;20499;-79
2021/04/29 01:21:24;;;;;;;16.13;10.18;;;;;;;11.89;96.63;99748.59;5013559;28;20094;-76
2021/04/29 01:24:01;;;;;;;19.17;10.23;;;;;;;11.80;97.19;99742.81;5019560;28;20529;-77
2021/04/29 01:26:29;;;;;;;14.68;9.95;;;;;;;11.88;95.13;99738.97;5016319;28;20076;-78
2021/04/29 01:28:58;;;;;;;15.05;9.80;;;;;;;11.76;95.47;99737.44;5011891;28;20042;-79
2021/04/29 01:31:35;;;;;;;17.38;9.52;;;;;;;11.81;95.25;99727.41;5010546;28;20498;-77
2021/04/29 01:34:04;;;;;;;14.13;9.80;;;;;;;12.14;93.68;99732.38;5010508;28;20104;-79
2021/04/29 01:36:31;;;;;;;12.95;9.43;;;;;;;12.06;92.44;99722.78;5005474;28;20030;-79
2021/04/29 01:38:58;;;;;;;13.18;9.48;;;;;;;12.21;90.53;99732.38;5014679;28;20494;-79
2021/04/29 01:41:25;;;;;;;14.85;9.20;;;;;;;11.68;93.06;99733.19;5011879;28;20041;-77
2021/04/29 01:43:51;;;;;;;14.68;9.63;;;;;;;11.65;92.83;99725.06;5017109;28;20101;-77
2021/04/29 01:46:16;;;;;;;16.70;9.23;;;;;;;11.68;92.27;99730.47;5017587;28;20115;-77
2021/04/29 01:48:43;;;;;;;16.00;9.18;;;;;;;11.52;90.91;99732.72;5011470;28;20034;-79
2021/04/29 01:51:10;;;;;;;13.50;9.52;;;;;;;11.70;91.52;99735.47;5013562;28;20034;-76
2021/04/29 01:53:35;;;;;;;14.88;10.00;;;;;;;12.09;89.74;99730.84;5018193;28;20052;-79
2021/04/29 01:56:01;;;;;;;17.20;10.00;;;;;;;12.00;91.17;99727.75;5005858;28;20445;-78
2021/04/29 01:58:27;;;;;;;18.10;10.30;;;;;;;11.79;92.08;99727.78;5007395;28;20053;-76
2021/04/29 02:00:52;;;;;;;16.67;9.57;;;;;;;11.87;91.00;99713.13;5015371;28;20038;-78
2021/04/29 02:03:19;;;;;;;12.90;8.98;;;;;;;12.13;89.37;99715.44;5014717;28;20030;-79
2021/04/29 02:05:44;;;;;;;18.05;9.80;;;;;;;12.08;87.10;99715.81;5040383;22;20048;-73
2021/04/29 02:08:10;;;;;;;16.70;9.70;;;;;;;12.12;88.34;99710.41;5049992;28;20029;-73
2021/04/29 02:10:36;;;;;;;16.10;10.18;;;;;;;11.87;88.81;99712.34;5058820;28;20037;-73
2021/04/29 02:13:06;;;;;;;13.57;9.43;;;;;;;11.79;88.52;99704.28;5050451;28;20068;-71
2021/04/29 02:15:38;;;;;;;14.30;9.27;;;;;;;11.93;87.10;99698.09;5039837;28;20037;-72
2021/04/29 02:18:14;;;;;;;13.90;9.52;;;;;;;12.20;85.68;99693.81;5017110;28;20029;-71
2021/04/29 02:20:42;;;;;;;16.40;9.48;;;;;;;12.00;86.39;99689.25;5026152;28;20079;-72
2021/04/29 02:23:10;;;;;;;17.90;10.65;;;;;;;12.10;86.94;99685.75;5032168;28;20044;-72
2021/04/29 02:25:39;;;;;;;17.20;9.30;;;;;;;11.97;87.01;99684.59;5003175;28;20045;-72
2021/04/29 02:28:05;;;;;;;17.33;9.63;;;;;;;12.01;87.48;99678.06;5026985;28;20025;-72
2021/04/29 02:30:31;;;;;;;16.15;9.55;;;;;;;11.89;88.12;99677.66;5030363;28;20045;-71
2021/04/29 02:32:57;;;;;;;16.00;10.07;;;;;;;12.05;86.41;99678.81;5031761;28;20491;-71
2021/04/29 02:35:23;;;;;;;15.05;9.95;;;;;;;11.82;85.37;99667.66;5023439;28;20022;-71
2021/04/29 02:37:51;;;;;;;18.00;10.27;;;;;;;11.73;86.67;99676.13;5023726;28;20037;-71
2021/04/29 02:40:18;;;;;;;14.80;9.23;;;;;;;11.82;86.20;99666.88;5032340;28;20025;-71
2021/04/29 02:42:45;;;;;;;17.80;9.82;;;;;;;11.77;86.30;99665.34;5010396;28;20623;-71
2021/04/29 02:45:12;;;;;;;16.00;9.95;;;;;;;11.68;86.91;99654.97;5009003;28;20037;-74
2021/04/29 02:47:43;;;;;;;15.30;9.60;;;;;;;11.75;86.97;99656.88;5023231;28;20501;-70
2021/04/29 02:50:10;;;;;;;21.88;10.23;;;;;;;11.71;86.54;99642.63;5032205;28;20497;-73
2021/04/29 02:52:38;;;;;;;16.50;10.80;;;;;;;11.80;86.07;99634.91;5001401;28;20046;-71
2021/04/29 02:55:08;;;;;;;17.40;10.93;;;;;;;11.72;86.33;99634.16;5030400;28;20030;-71
2021/04/29 02:57:34;;;;;;;20.42;11.07;;;;;;;11.76;86.54;99623.34;5017843;28;20083;-73
2021/04/29 02:59:59;;;;;;;21.45;10.90;;;;;;;11.60;87.78;99629.13;5030098;28;20026;-71
2021/04/29 03:02:25;;;;;;;20.30;10.55;;;;;;;11.64;88.67;99637.97;5012876;28;20383;-72
2021/04/29 03:04:50;;;;;;;14.35;10.32;;;;;;;11.52;89.68;99632.19;5014395;28;20090;-72
2021/04/29 03:07:16;;;;;;;15.77;10.70;;;;;;;11.43;88.91;99634.53;5026677;28;20044;-71
2021/04/29 03:09:42;;;;;;;15.98;10.65;;;;;;;11.30;90.77;99633.38;5009450;28;20079;-71
2021/04/29 03:12:08;;;;;;;16.45;10.55;;;;;;;11.45;89.66;99632.22;5027759;28;20413;-71
2021/04/29 03:14:33;;;;;;;16.42;11.02;;;;;;;11.60;89.33;99628.34;5028722;28;20041;-72
2021/04/29 03:16:59;;;;;;;20.50;11.50;;;;;;;11.38;90.39;99637.59;5030423;28;20026;-71
2021/04/29 03:19:24;;;;;;;15.90;11.07;;;;;;;11.49;89.93;99622.19;5021838;28;20034;-71
2021/04/29 03:21:50;;;;;;;19.30;11.10;;;;;;;11.33;88.52;99635.28;5029276;28;20072;-73
2021/04/29 03:24:15;;;;;;;17.38;11.15;;;;;;;11.30;89.71;99631.44;5009443;28;20033;-73
2021/04/29 03:26:41;;;;;;;17.02;11.07;;;;;;;11.22;90.52;99639.91;5030317;28;20033;-71
2021/04/29 03:29:06;;;;;;;16.23;11.60;;;;;;;11.23;90.87;99631.44;5022301;28;20058;-72
2021/04/29 03:31:32;;;;;;;17.42;11.55;;;;;;;11.36;89.95;99627.19;5024671;28;20049;-72
2021/04/29 03:33:57;;;;;;;17.88;11.85;;;;;;;11.44;88.75;99625.28;5020293;28;20037;-72
2021/04/29 03:36:23;;;;;;;19.70;11.93;;;;;;;11.52;89.02;99622.19;5013287;28;20065;-72
2021/04/29 03:38:48;;;;;;;17.45;11.43;;;;;;;11.15;89.46;99618.34;5016077;28;20371;-71
2021/04/29 03:41:14;;;;;;;15.90;11.15;;;;;;;11.35;88.94;99625.66;5008093;28;20037;-71
2021/04/29 03:43:39;;;;;;;16.77;11.38;;;;;;;11.48;88.79;99609.84;5013819;28;20051;-71
2021/04/29 03:46:05;;;;;;;18.17;11.55;;;;;;;11.34;89.63;99623.34;5024251;28;20454;-71
2021/04/29 03:48:32;;;;;;;20.27;11.77;;;;;;;11.52;88.85;99624.09;5029945;28;20061;-72
2021/04/29 03:50:57;;;;;;;19.65;11.77;;;;;;;11.46;88.38;99618.34;5011125;28;20108;-72
2021/04/29 03:53:23;;;;;;;19.67;11.60;;;;;;;11.26;89.27;99614.50;5022347;28;20080;-72
2021/04/29 03:55:48;;;;;;;19.73;11.45;;;;;;;11.06;90.46;99621.41;5027519;28;20095;-71
2021/04/29 03:58:14;;;;;;;18.45;12.30;;;;;;;11.11;90.66;99618.31;5028175;28;20413;-71
2021/04/29 04:00:39;;;;;;;20.73;12.32;;;;;;;11.38;88.91;99616.78;5017425;28;20075;-71
2021/04/29 04:03:04;;;;;;;18.80;12.32;;;;;;;11.53;87.99;99620.28;5030916;28;20029;-71
2021/04/29 04:05:30;;;;;;;18.33;11.77;;;;;;;11.57;87.34;99618.34;5022786;28;20026;-72
2021/04/29 04:07:56;;;;;;;19.00;11.63;;;;;;;11.58;87.48;99617.94;5007284;28;20033;-72
2021/04/29 04:10:21;;;;;;;19.77;12.85;;;;;;;11.61;87.81;99619.13;5028566;28;20524;-72
2021/04/29 04:12:46;;;;;;;20.38;12.18;;;;;;;11.45;88.35;99616.03;5020708;28;20053;-72
2021/04/29 04:15:12;;;;;;;25.50;12.75;;;;;;;11.50;87.85;99615.63;5017631;28;20098;-72
2021/04/29 04:17:37;;;;;;;19.52;12.98;;;;;;;11.49;87.80;99614.09;5026934;28;20484;-72
2021/04/29 04:20:03;;;;;;;19.85;12.68;;;;;;;11.46;87.67;99617.56;5030245;28;20037;-72
2021/04/29 04:22:29;;;;;;;22.65;13.10;;;;;;;11.41;87.94;99607.94;5008777;28;20037;-72
2021/04/29 04:24:54;;;;;;;25.20;13.38;;;;;;;11.28;89.13;99611.41;5022474;28;20108;-72
2021/04/29 04:27:20;;;;;;;18.42;12.70;;;;;;;11.36;88.31;99615.66;5027468;28;20037;-71
2021/04/29 04:29:45;;;;;;;18.85;12.43;;;;;;;11.48;88.35;99612.56;5011164;28;20037;-72
2021/04/29 04:32:11;;;;;;;18.83;12.80;;;;;;;11.48;88.38;99616.03;5025044;28;20457;-71
2021/04/29 04:34:36;;;;;;;21.88;13.60;;;;;;;11.45;88.63;99608.72;5018771;28;20560;-72
2021/04/29 04:37:02;;;;;;;20.35;13.68;;;;;;;11.47;88.19;99611.81;5014217;28;20030;-72
2021/04/29 04:39:28;;;;;;;27.50;14.00;;;;;;;11.45;88.54;99602.56;5013882;28;20105;-72
2021/04/29 04:41:53;;;;;;;21.70;13.52;;;;;;;11.45;89.43;99603.34;5021266;28;20061;-72
2021/04/29 04:44:19;;;;;;;21.55;13.68;;;;;;;11.43;89.64;99604.88;5016897;28;20064;-72
2021/04/29 04:46:44;;;;;;;20.52;13.27;;;;;;;11.44;89.13;99609.88;5014416;28;20044;-72
2021/04/29 04:49:10;;;;;;;25.30;14.65;;;;;;;11.26;90.51;99608.34;5017644;28;21126;-72
2021/04/29 04:51:35;;;;;;;24.75;13.90;;;;;;;11.25;90.87;99612.16;5018329;28;20456;-72
2021/04/29 04:54:02;;;;;;;21.80;14.48;;;;;;;11.22;92.11;99613.72;5018737;28;20397;-71
2021/04/29 04:56:28;;;;;;;20.27;14.07;;;;;;;11.27;91.67;99609.88;5016332;28;20061;-72
2021/04/29 04:58:54;;;;;;;24.20;14.75;;;;;;;11.30;90.96;99620.66;5021805;28;20116;-72
2021/04/29 05:01:20;;;;;;;28.15;14.70;;;;;;;11.50;90.57;99612.94;5019655;28;20029;-72
2021/04/29 05:03:48;;;;;;;24.05;15.45;;;;;;;11.58;90.23;99617.19;5019763;28;20060;-72
2021/04/29 05:06:15;;;;;;;22.60;14.95;;;;;;;11.59;90.16;99618.72;5016389;28;20112;-72
2021/04/29 05:08:40;;;;;;;24.67;15.50;;;;;;;11.48;91.05;99612.56;5016206;28;20030;-72
2021/04/29 05:11:05;;;;;;;23.08;14.70;;;;;;;11.63;91.10;99622.19;5014386;28;20568;-71
2021/04/29 05:13:31;;;;;;;23.10;15.32;;;;;;;11.55;90.62;99626.03;5014729;28;20116;-72
2021/04/29 05:15:56;;;;;;;26.20;16.30;;;;;;;11.54;91.63;99621.81;5016192;28;20040;-72
2021/04/29 05:18:25;;;;;;;21.90;15.02;;;;;;;11.61;91.11;99630.66;5012672;28;20029;-72
2021/04/29 05:20:50;;;;;;;26.02;16.08;;;;;;;11.65;91.81;99619.88;5013060;28;20653;-72
2021/04/29 05:23:15;;;;;;;27.27;15.70;;;;;;;11.33;92.78;99627.97;5021192;28;20183;-72
2021/04/29 05:25:41;;;;;;;22.38;15.23;;;;;;;11.34;93.29;99628.75;5014323;28;20111;-72
2021/04/29 05:28:06;;;;;;;25.80;15.55;;;;;;;11.41;92.96;99629.53;5016177;28;20113;-71
2021/04/29 05:30:32;;;;;;;27.80;16.45;;;;;;;11.39;92.38;99631.03;5032520;28;20041;-72
2021/04/29 05:32:58;;;;;;;24.42;15.95;;;;;;;11.22;93.53;99621.03;5033600;28;20041;-71
2021/04/29 05:35:23;;;;;;;26.52;15.70;;;;;;;11.44;93.82;99630.69;5023063;28;20114;-72
2021/04/29 05:37:49;;;;;;;25.17;15.85;;;;;;;11.15;94.74;99629.13;5031277;28;20025;-72
2021/04/29 05:40:15;;;;;;;27.10;16.30;;;;;;;11.34;93.94;99626.06;5029781;28;20112;-71
2021/04/29 05:42:41;;;;;;;29.13;16.67;;;;;;;11.52;93.49;99630.28;5019845;28;20033;-72
2021/04/29 05:45:08;;;;;;;24.05;15.70;;;;;;;11.51;93.88;99625.28;5009036;28;20498;-72
2021/04/29 05:47:34;;;;;;;27.35;16.65;;;;;;;11.56;93.32;99624.88;5022618;28;20037;-72
2021/04/29 05:49:59;;;;;;;30.33;17.30;;;;;;;11.48;93.96;99623.34;5022364;28;20449;-72
2021/04/29 05:52:25;;;;;;;25.42;16.45;;;;;;;11.43;94.78;99629.13;5027265;28;20040;-72
2021/04/29 05:54:50;;;;;;;28.52;16.92;;;;;;;11.36;94.81;99640.66;5002416;28;20034;-72
2021/04/29 05:57:15;;;;;;;31.52;16.63;;;;;;;11.37;95.18;99644.13;5016257;28;20164;-72
2021/04/29 05:59:41;;;;;;;27.23;16.58;;;;;;;10.99;97.32;99650.25;5001192;28;20363;-71
2021/04/29 06:02:07;;;;;;;26.05;17.00;;;;;;;11.32;97.33;99649.91;5025707;28;20065;-71
2021/04/29 06:04:32;;;;;;;26.40;16.70;;;;;;;11.40;96.70;99654.91;5022348;28;20037;-72
2021/04/29 06:06:57;;;;;;;26.65;17.02;;;;;;;11.46;95.66;99644.50;5024816;28;20510;-72
2021/04/29 06:09:23;;;;;;;26.70;16.60;;;;;;;11.58;95.89;99647.63;5018515;28;21397;-72
2021/04/29 06:11:49;;;;;;;24.15;16.38;;;;;;;11.49;95.22;99649.16;5018343;28;20037;-72
2021/04/29 06:14:14;;;;;;;30.20;18.73;;;;;;;11.59;95.55;99643.75;5024551;28;20109;-72
2021/04/29 06:16:40;;;;;;;25.70;16.88;;;;;;;11.15;97.67;99637.22;5031250;28;20032;-72
2021/04/29 06:19:06;;;;;;;27.63;17.13;;;;;;;11.25;98.63;99649.91;5023774;28;20025;-72
2021/04/29 06:21:32;;;;;;;36.90;18.58;;;;;;;11.52;96.84;99648.38;5015719;28;20029;-71
2021/04/29 06:23:58;;;;;;;27.08;18.48;;;;;;;11.63;95.59;99652.59;5017170;28;20033;-71
2021/04/29 06:26:23;;;;;;;27.75;17.48;;;;;;;11.59;94.79;99645.69;4999585;28;20030;-72
2021/04/29 06:28:49;;;;;;;26.48;17.48;;;;;;;11.39;95.65;99647.22;5020802;28;20033;-72
2021/04/29 06:31:15;;;;;;;30.77;19.17;;;;;;;11.37;95.83;99649.53;5026327;28;20155;-72
2021/04/29 06:33:41;;;;;;;28.13;17.88;;;;;;;11.10;97.35;99653.72;5020497;28;20061;-72
2021/04/29 06:36:07;;;;;;;29.35;17.67;;;;;;;10.95;96.67;99649.47;5025495;28;20061;-72
2021/04/29 06:38:34;;;;;;;27.38;17.63;;;;;;;11.14;97.62;99649.13;5030296;28;20041;-72
2021/04/29 06:41:01;;;;;;;28.27;18.48;;;;;;;11.34;96.11;99653.75;5026667;28;20068;-72
2021/04/29 06:43:26;;;;;;;27.92;17.50;;;;;;;11.40;95.06;99657.63;5025077;28;20416;-72
2021/04/29 06:45:53;;;;;;;27.05;17.08;;;;;;;11.47;95.06;99654.94;5021699;28;20030;-72
2021/04/29 06:48:18;;;;;;;29.77;17.10;;;;;;;11.44;94.79;99650.31;5011366;28;20046;-72
2021/04/29 06:50:44;;;;;;;29.20;18.33;;;;;;;11.57;94.16;99661.50;5015827;28;20518;-72
2021/04/29 06:53:09;;;;;;;28.58;17.98;;;;;;;11.41;94.97;99647.59;5004577;28;20119;-72
2021/04/29 06:55:35;;;;;;;28.38;17.63;;;;;;;11.41;96.05;99647.59;5014787;28;20045;-72
2021/04/29 06:58:00;;;;;;;25.58;17.10;;;;;;;11.47;94.75;99646.06;5023112;28;20049;-72
2021/04/29 07:00:26;;;;;;;29.10;17.60;;;;;;;11.23;93.90;99655.69;5012745;28;20029;-72
2021/04/29 07:02:55;;;;;;;27.75;17.77;;;;;;;11.47;93.63;99643.38;5018391;28;20141;-72
2021/04/29 07:05:20;;;;;;;26.98;17.10;;;;;;;11.45;92.78;99643.78;5020034;28;20065;-72
2021/04/29 07:07:50;;;;;;;27.08;17.83;;;;;;;11.46;92.93;99644.50;5021409;28;20068;-72
2021/04/29 07:10:15;;;;;;;32.35;18.38;;;;;;;11.53;93.75;99634.53;5030527;28;20038;-72
2021/04/29 07:12:41;;;;;;;29.83;17.80;;;;;;;11.23;95.01;99636.03;5021106;28;20107;-72
2021/04/29 07:15:07;;;;;;;24.70;17.15;;;;;;;11.20;95.29;99631.44;5022990;28;20679;-72
2021/04/29 07:17:32;;;;;;;29.33;19.00;;;;;;;11.28;95.59;99636.44;4997845;28;20033;-72
2021/04/29 07:19:57;;;;;;;32.50;18.95;;;;;;;11.35;96.00;99638.34;5021293;28;20111;-72
2021/04/29 07:22:23;;;;;;;29.33;18.80;;;;;;;11.36;96.66;99629.88;5013409;28;20037;-73
2021/04/29 07:24:48;;;;;;;30.80;19.50;;;;;;;11.14;98.50;99631.03;5024476;28;20413;-73
2021/04/29 07:27:14;;;;;;;30.98;19.52;;;;;;;11.33;97.91;99625.28;5019649;28;20505;-73
2021/04/29 07:29:39;;;;;;;29.45;18.83;;;;;;;11.26;97.52;99619.88;5026861;28;20798;-72
2021/04/29 07:32:05;;;;;;;28.70;17.98;;;;;;;11.41;96.86;99615.25;5021273;28;20091;-72
2021/04/29 07:34:31;;;;;;;29.08;18.77;;;;;;;11.24;97.56;99619.50;5026300;28;20514;-72
2021/04/29 07:37:00;;;;;;;26.67;18.80;;;;;;;11.29;98.02;99621.03;5017961;28;20059;-72
2021/04/29 07:39:27;;;;;;;27.05;19.17;;;;;;;11.02;99.44;99619.84;5025104;28;20048;-72
2021/04/29 07:41:53;;;;;;;32.88;19.40;;;;;;;11.16;100.00;99619.88;5013641;28;20034;-72
2021/04/29 07:44:18;;;;;;;29.35;18.77;;;;;;;11.22;99.90;99615.66;5021645;28;20029;-72
2021/04/29 07:46:44;;;;;;;28.55;18.08;;;;;;;11.30;99.54;99614.50;5016057;28;20108;-72
2021/04/29 07:49:09;;;;;;;34.17;20.52;;;;;;;11.49;99.39;99614.09;5026047;28;20030;-72
2021/04/29 07:51:35;;;;;;;33.85;20.50;;;;;;;11.48;98.98;99612.56;5021670;28;20064;-72
2021/04/29 07:54:03;;;;;;;31.60;19.73;;;;;;;11.52;98.07;99608.72;5024557;28;20037;-72
2021/04/29 07:56:29;;;;;;;31.65;19.88;;;;;;;11.42;97.85;99614.13;5021155;28;20502;-73
2021/04/29 07:58:55;;;;;;;34.50;19.98;;;;;;;11.63;98.19;99614.09;5002365;28;20033;-72
2021/04/29 08:01:20;;;;;;;34.92;20.80;;;;;;;11.64;98.35;99612.94;5022447;28;20444;-72
2021/04/29 08:03:45;;;;;;;34.30;19.73;;;;;;;11.58;98.43;99607.16;5025436;28;20647;-72
2021/04/29 08:06:11;;;;;;;33.45;20.08;;;;;;;11.57;98.31;99602.94;5026428;22;20026;-76
2021/04/29 08:08:37;;;;;;;32.17;19.80;;;;;;;11.33;99.62;99594.84;5022275;28;20617;-78
2021/04/29 08:11:02;;;;;;;28.30;19.90;;;;;;;11.47;99.48;99592.94;5042851;28;20154;-76
2021/04/29 08:13:28;;;;;;;35.60;20.52;;;;;;;11.55;99.67;99604.47;5047859;28;20424;-78
2021/04/29 08:15:53;;;;;;;33.97;21.23;;;;;;;11.81;97.97;99595.22;5036935;28;20469;-79
2021/04/29 08:18:19;;;;;;;31.40;20.27;;;;;;;11.60;98.93;99590.59;5039719;28;20029;-72
2021/04/29 08:20:45;;;;;;;37.72;21.35;;;;;;;11.61;98.96;99592.16;5044374;28;20051;-77
2021/04/29 08:23:10;;;;;;;32.42;20.70;;;;;;;11.71;99.68;99594.09;5049207;28;20670;-79
2021/04/29 08:25:36;;;;;;;35.42;21.88;;;;;;;11.83;98.47;99590.97;5041713;28;20032;-79
2021/04/29 08:28:02;;;;;;;36.45;21.05;;;;;;;11.64;100.00;99589.44;5046889;28;20390;-76
2021/04/29 08:30:29;;;;;;;33.72;21.23;;;;;;;11.55;100.00;99589.06;5029791;28;20045;-76
2021/04/29 08:32:56;;;;;;;35.20;21.83;;;;;;;11.74;100.00;99591.38;5027824;28;20029;-76
2021/04/29 08:35:23;;;;;;;33.28;21.63;;;;;;;11.77;100.00;99585.19;5048338;28;20036;-78
2021/04/29 08:37:48;;;;;;;34.22;21.50;;;;;;;11.89;99.99;99592.13;5040557;28;20050;-78
2021/04/29 08:40:14;;;;;;;35.30;21.77;;;;;;;11.98;99.62;99587.06;5045719;28;20112;-75
2021/04/29 08:42:44;;;;;;;35.95;23.08;;;;;;;12.01;99.98;99589.00;5004058;28;20032;-76
2021/04/29 08:45:10;;;;;;;39.83;22.75;;;;;;;12.13;98.83;99585.88;5026059;28;20041;-78
2021/04/29 08:47:37;;;;;;;34.15;22.65;;;;;;;12.14;99.73;99581.25;5034211;28;20048;-76
2021/04/29 08:50:05;;;;;;;34.28;22.63;;;;;;;12.25;99.46;99580.03;5040893;28;20047;-78
2021/04/29 08:52:31;;;;;;;34.10;21.50;;;;;;;12.15;99.61;99577.38;5039746;28;20038;-76
2021/04/29 08:54:56;;;;;;;36.40;22.90;;;;;;;12.24;99.84;99594.72;5029553;28;20080;-78
2021/04/29 08:57:22;;;;;;;35.13;21.80;;;;;;;12.31;99.27;99589.28;5043263;28;20040;-78
2021/04/29 08:59:48;;;;;;;38.45;23.92;;;;;;;12.52;99.15;99588.41;5048705;28;20145;-78
2021/04/29 09:02:13;;;;;;;37.75;22.63;;;;;;;12.54;98.69;99583.41;5050062;28;20108;-78
2021/04/29 09:04:41;;;;;;;37.90;22.88;;;;;;;12.51;99.54;99582.25;5047267;28;20123;-74
2021/04/29 09:07:12;;;;;;;35.88;21.42;;;;;;;12.42;99.48;99584.63;5048090;28;20037;-76
2021/04/29 09:09:45;;;;;;;37.67;22.95;;;;;;;12.48;99.18;99587.66;5049419;28;20065;-77
2021/04/29 09:12:11;;;;;;;34.15;21.55;;;;;;;12.50;99.39;99583.38;5044959;28;20021;-78
2021/04/29 09:14:38;;;;;;;35.50;21.58;;;;;;;12.37;100.00;99589.63;5042567;28;20032;-74
2021/04/29 09:17:05;;;;;;;34.65;21.70;;;;;;;12.44;100.00;99585.00;5043697;28;20029;-76
2021/04/29 09:19:34;;;;;;;36.03;22.50;;;;;;;12.65;100.00;99594.91;5028084;28;20037;-77
2021/04/29 09:22:00;;;;;;;31.92;20.88;;;;;;;12.69;99.44;99588.31;5051457;28;20402;-77
2021/04/29 09:24:37;;;;;;;34.47;21.92;;;;;;;12.61;98.99;99588.75;5045743;28;20041;-79
2021/04/29 09:27:12;;;;;;;34.42;21.42;;;;;;;12.64;99.81;99590.66;5043688;28;20044;-78
2021/04/29 09:29:57;;;;;;;33.75;22.08;;;;;;;12.61;99.70;99588.75;5023324;28;20051;-77
2021/04/29 09:32:26;;;;;;;38.30;22.83;;;;;;;12.58;99.20;99600.34;5044852;28;20033;-78
2021/04/29 09:34:51;;;;;;;32.30;22.45;;;;;;;12.51;99.25;99590.34;5030469;28;20036;-77
2021/04/29 09:37:37;;;;;;;36.55;21.40;;;;;;;12.52;99.37;99591.88;5041555;28;20450;-77
2021/04/29 09:40:19;;;;;;;30.85;21.35;;;;;;;12.16;98.91;99592.41;5041305;28;20029;-76
2021/04/29 09:42:47;;;;;;;32.10;21.02;;;;;;;12.21;100.00;99594.72;5045299;28;20709;-78
2021/04/29 09:45:18;;;;;;;36.38;21.92;;;;;;;12.20;100.00;99593.16;5046210;28;20032;-75
2021/04/29 09:47:58;;;;;;;35.70;22.10;;;;;;;12.16;100.00;99597.81;5042760;28;20546;-78
2021/04/29 09:50:48;;;;;;;31.80;21.30;;;;;;;12.25;100.00;99592.78;5033510;28;20075;-77
2021/04/29 09:53:16;;;;;;;35.65;21.98;;;;;;;12.10;100.00;99597.44;4933531;28;20052;-76
2021/04/29 09:55:48;;;;;;;35.67;21.02;;;;;;;12.17;100.00;99594.75;4933960;28;20043;-78
2021/04/29 09:58:16;;;;;;;37.75;21.70;;;;;;;12.12;100.00;99597.06;4939696;28;20043;-75
2021/04/29 10:00:48;;;;;;;32.22;21.65;;;;;;;12.20;99.74;99604.75;4929200;29;20083;-78
2021/04/29 10:03:14;;;;;;;;;;;;;;;11.99;100.00;99610.22;4951902;28;20035;-77
2021/04/29 10:05:41;;;;;;;30.40;19.85;;;;;;;12.03;100.00;99602.88;4944739;28;19940;-75
2021/04/29 10:08:10;;;;;;;34.70;21.85;;;;;;;11.94;100.00;99610.63;4944076;29;20068;-79
2021/04/29 10:10:38;;;;;;;35.42;20.98;;;;;;;12.06;100.00;99598.63;4954190;28;20102;-79
2021/04/29 10:13:05;;;;;;;33.53;21.08;;;;;;;12.02;100.00;99606.72;4930138;28;20047;-78
2021/04/29 10:15:33;;;;;;;31.25;20.80;;;;;;;11.72;100.00;99611.81;4943157;28;20050;-72
2021/04/29 10:17:59;;;;;;;36.63;21.25;;;;;;;11.98;100.00;99607.91;4931393;29;20055;-77
2021/04/29 10:20:26;;;;;;;36.85;22.15;;;;;;;11.97;100.00;99615.22;4947600;28;20549;-76
2021/04/29 10:22:52;;;;;;;38.53;22.27;;;;;;;11.95;100.00;99614.84;4946451;28;20091;-78
2021/04/29 10:25:34;;;;;;;37.78;23.13;;;;;;;11.74;100.00;99610.28;4943287;28;20035;-76
2021/04/29 10:28:01;;;;;;;34.90;21.52;;;;;;;11.62;100.00;99607.94;4934134;28;20139;-79
2021/04/29 10:30:34;;;;;;;34.33;20.80;;;;;;;11.73;100.00;99607.94;5007593;28;20049;-78
2021/04/29 10:33:15;;;;;;;34.22;21.42;;;;;;;11.62;100.00;99612.56;5040392;28;20025;-74
2021/04/29 10:36:00;;;;;;;32.53;22.17;;;;;;;11.78;100.00;99604.88;5044096;28;20025;-74
2021/04/29 10:38:32;;;;;;;30.70;20.02;;;;;;;11.41;100.00;99610.66;5044639;28;20061;-76
2021/04/29 10:41:01;;;;;;;32.75;20.50;;;;;;;11.37;100.00;99603.72;5043883;28;20091;-78
2021/04/29 10:43:36;;;;;;;34.53;21.45;;;;;;;11.45;100.00;99611.41;5038111;28;20071;-78
2021/04/29 10:46:05;;;;;;;34.95;21.50;;;;;;;11.60;100.00;99606.78;5026977;28;20498;-76
2021/04/29 10:48:38;;;;;;;31.15;20.63;;;;;;;11.59;100.00;99602.56;5032664;28;20039;-78
2021/04/29 10:51:10;;;;;;;34.95;22.15;;;;;;;11.71;100.00;99602.94;5028507;28;20738;-76
2021/04/29 10:53:37;;;;;;;33.55;21.27;;;;;;;11.58;100.00;99609.88;5052211;28;20472;-78
2021/04/29 10:56:05;;;;;;;33.83;21.08;;;;;;;11.22;100.00;99611.03;5043749;28;20044;-78
2021/04/29 10:58:30;;;;;;;33.75;21.08;;;;;;;11.54;100.00;99613.72;5044100;28;20376;-77
2021/04/29 11:01:01;;;;;;;32.97;21.50;;;;;;;11.36;100.00;99616.41;5026703;28;20029;-77
2021/04/29 11:03:38;;;;;;;32.22;20.77;;;;;;;11.23;100.00;99612.56;5049467;28;20033;-75
2021/04/29 11:06:19;;;;;;;39.25;22.65;;;;;;;11.33;100.00;99613.72;5051359;28;20243;-76
2021/04/29 11:08:48;;;;;;;34.90;22.83;;;;;;;10.98;100.00;99617.16;5022914;28;20489;-77
2021/04/29 11:11:29;;;;;;;37.03;21.95;;;;;;;11.06;100.00;99617.94;5033629;28;20045;-77
2021/04/29 11:14:14;;;;;;;33.08;20.58;;;;;;;10.94;100.00;99615.63;5044987;28;20137;-77
2021/04/29 11:16:47;;;;;;;33.08;21.00;;;;;;;10.98;100.00;99613.69;5028767;28;20044;-77